sensor_id;sensor_type;location;lat;lon;timestamp;temperature;humidity
76537;DHT22;65381;51.254;15.592;2023-03-23T00:00:25;13.00;53.50
76537;DHT22;65381;51.254;15.592;2023-03-23T00:03:12;13.00;53.50
76537;DHT22;65381;51.254;15.592;2023-03-23T00:05:39;13.00;53.50
76537;DHT22;65381;51.254;15.592;2023-03-23T00:08:18;13.00;53.50
76537;DHT22;65381;51.254;15.592;2023-03-23T00:10:49;13.00;53.50
76537;DHT22;65381;51.254;15.592;2023-03-23T00:13:19;13.00;53.40
76537;DHT22;65381;51.254;15.592;2023-03-23T00:15:46;13.00;53.50
76537;DHT22;65381;51.254;15.592;2023-03-23T00:18:17;13.00;53.50
76537;DHT22;65381;51.254;15.592;2023-03-23T00:20:54;13.00;53.50
76537;DHT22;65381;51.254;15.592;2023-03-23T00:23:25;13.00;53.50
76537;DHT22;65381;51.254;15.592;2023-03-23T00:25:54;13.00;53.50
76537;DHT22;65381;51.254;15.592;2023-03-23T00:28:26;13.00;53.40
76537;DHT22;65381;51.254;15.592;2023-03-23T00:30:56;13.00;53.40
76537;DHT22;65381;51.254;15.592;2023-03-23T00:33:26;13.00;53.40
76537;DHT22;65381;51.254;15.592;2023-03-23T00:35:54;13.00;53.40
76537;DHT22;65381;51.254;15.592;2023-03-23T00:38:24;13.00;53.40
76537;DHT22;65381;51.254;15.592;2023-03-23T00:40:54;13.00;53.40
76537;DHT22;65381;51.254;15.592;2023-03-23T00:43:25;13.00;53.40
76537;DHT22;65381;51.254;15.592;2023-03-23T00:45:58;12.90;53.40
76537;DHT22;65381;51.254;15.592;2023-03-23T00:48:28;13.00;53.40
76537;DHT22;65381;51.254;15.592;2023-03-23T00:50:56;13.00;53.40
76537;DHT22;65381;51.254;15.592;2023-03-23T00:53:26;13.00;53.30
76537;DHT22;65381;51.254;15.592;2023-03-23T00:55:53;13.00;53.30
76537;DHT22;65381;51.254;15.592;2023-03-23T00:58:21;13.00;53.30
76537;DHT22;65381;51.254;15.592;2023-03-23T01:00:50;12.90;53.20
76537;DHT22;65381;51.254;15.592;2023-03-23T01:03:17;12.90;53.30
76537;DHT22;65381;51.254;15.592;2023-03-23T01:05:46;12.80;53.30
76537;DHT22;65381;51.254;15.592;2023-03-23T01:08:19;12.80;53.30
76537;DHT22;65381;51.254;15.592;2023-03-23T01:10:48;12.90;53.30
76537;DHT22;65381;51.254;15.592;2023-03-23T01:13:20;12.90;53.20
76537;DHT22;65381;51.254;15.592;2023-03-23T01:15:50;12.90;53.30
76537;DHT22;65381;51.254;15.592;2023-03-23T01:18:19;12.90;53.20
76537;DHT22;65381;51.254;15.592;2023-03-23T01:20:45;12.90;53.20
76537;DHT22;65381;51.254;15.592;2023-03-23T01:23:12;13.00;53.20
76537;DHT22;65381;51.254;15.592;2023-03-23T01:25:39;13.00;53.20
76537;DHT22;65381;51.254;15.592;2023-03-23T01:28:07;13.00;53.20
76537;DHT22;65381;51.254;15.592;2023-03-23T01:30:38;13.00;53.20
76537;DHT22;65381;51.254;15.592;2023-03-23T01:33:11;13.00;53.20
76537;DHT22;65381;51.254;15.592;2023-03-23T01:35:38;13.00;53.20
76537;DHT22;65381;51.254;15.592;2023-03-23T01:38:06;13.00;53.20
76537;DHT22;65381;51.254;15.592;2023-03-23T01:40:33;13.00;53.20
76537;DHT22;65381;51.254;15.592;2023-03-23T01:42:59;13.00;53.20
76537;DHT22;65381;51.254;15.592;2023-03-23T01:45:31;13.10;53.20
76537;DHT22;65381;51.254;15.592;2023-03-23T01:48:03;13.10;53.20
76537;DHT22;65381;51.254;15.592;2023-03-23T01:50:37;13.10;53.10
76537;DHT22;65381;51.254;15.592;2023-03-23T01:53:08;13.10;53.10
76537;DHT22;65381;51.254;15.592;2023-03-23T01:55:38;13.20;53.00
76537;DHT22;65381;51.254;15.592;2023-03-23T01:58:08;13.20;53.00
76537;DHT22;65381;51.254;15.592;2023-03-23T02:00:36;13.30;53.00
76537;DHT22;65381;51.254;15.592;2023-03-23T02:03:05;13.30;53.00
76537;DHT22;65381;51.254;15.592;2023-03-23T02:05:38;13.30;52.90
76537;DHT22;65381;51.254;15.592;2023-03-23T02:08:14;13.30;52.90
76537;DHT22;65381;51.254;15.592;2023-03-23T02:10:42;13.40;52.90
76537;DHT22;65381;51.254;15.592;2023-03-23T02:13:10;13.40;52.80
76537;DHT22;65381;51.254;15.592;2023-03-23T02:16:07;13.40;52.90
76537;DHT22;65381;51.254;15.592;2023-03-23T02:36:36;13.30;52.80
76537;DHT22;65381;51.254;15.592;2023-03-23T02:39:09;13.30;52.90
76537;DHT22;65381;51.254;15.592;2023-03-23T02:42:05;13.30;52.90
76537;DHT22;65381;51.254;15.592;2023-03-23T02:44:31;13.40;52.90
76537;DHT22;65381;51.254;15.592;2023-03-23T02:47:06;13.50;52.90
76537;DHT22;65381;51.254;15.592;2023-03-23T02:49:36;13.50;52.80
76537;DHT22;65381;51.254;15.592;2023-03-23T02:52:09;13.50;52.80
76537;DHT22;65381;51.254;15.592;2023-03-23T02:54:39;13.50;52.80
76537;DHT22;65381;51.254;15.592;2023-03-23T02:57:06;13.50;52.80
76537;DHT22;65381;51.254;15.592;2023-03-23T02:59:33;13.60;52.80
76537;DHT22;65381;51.254;15.592;2023-03-23T03:02:30;13.60;52.80
76537;DHT22;65381;51.254;15.592;2023-03-23T03:10:54;13.70;52.70
76537;DHT22;65381;51.254;15.592;2023-03-23T03:16:05;13.70;52.80
76537;DHT22;65381;51.254;15.592;2023-03-23T03:21:23;13.80;52.80
76537;DHT22;65381;51.254;15.592;2023-03-23T03:23:58;13.90;52.80
76537;DHT22;65381;51.254;15.592;2023-03-23T03:26:30;13.90;52.80
76537;DHT22;65381;51.254;15.592;2023-03-23T03:29:22;13.90;52.80
76537;DHT22;65381;51.254;15.592;2023-03-23T03:31:53;13.90;52.80
76537;DHT22;65381;51.254;15.592;2023-03-23T03:34:26;13.90;52.80
76537;DHT22;65381;51.254;15.592;2023-03-23T03:36:57;13.90;52.90
76537;DHT22;65381;51.254;15.592;2023-03-23T03:39:27;13.90;52.90
76537;DHT22;65381;51.254;15.592;2023-03-23T03:41:55;14.00;52.80
76537;DHT22;65381;51.254;15.592;2023-03-23T03:44:23;14.00;52.80
76537;DHT22;65381;51.254;15.592;2023-03-23T03:46:51;14.10;52.80
76537;DHT22;65381;51.254;15.592;2023-03-23T03:49:19;14.10;52.70
76537;DHT22;65381;51.254;15.592;2023-03-23T03:51:46;14.20;52.70
76537;DHT22;65381;51.254;15.592;2023-03-23T03:54:19;14.20;52.70
76537;DHT22;65381;51.254;15.592;2023-03-23T03:56:47;14.20;52.60
76537;DHT22;65381;51.254;15.592;2023-03-23T03:59:36;14.30;52.70
76537;DHT22;65381;51.254;15.592;2023-03-23T04:02:22;14.30;52.60
76537;DHT22;65381;51.254;15.592;2023-03-23T04:04:51;14.30;52.50
76537;DHT22;65381;51.254;15.592;2023-03-23T04:07:19;14.30;52.50
76537;DHT22;65381;51.254;15.592;2023-03-23T04:09:46;14.30;52.60
76537;DHT22;65381;51.254;15.592;2023-03-23T04:12:17;14.30;52.60
76537;DHT22;65381;51.254;15.592;2023-03-23T04:14:57;14.20;52.70
76537;DHT22;65381;51.254;15.592;2023-03-23T04:17:31;14.20;52.70
76537;DHT22;65381;51.254;15.592;2023-03-23T04:19:58;14.20;52.70
76537;DHT22;65381;51.254;15.592;2023-03-23T04:22:28;14.20;52.70
76537;DHT22;65381;51.254;15.592;2023-03-23T04:25:01;14.20;52.70
76537;DHT22;65381;51.254;15.592;2023-03-23T04:27:35;14.20;52.70
76537;DHT22;65381;51.254;15.592;2023-03-23T04:30:05;14.20;52.70
76537;DHT22;65381;51.254;15.592;2023-03-23T04:32:41;14.20;52.70
76537;DHT22;65381;51.254;15.592;2023-03-23T04:35:12;14.20;52.80
76537;DHT22;65381;51.254;15.592;2023-03-23T04:37:50;14.20;52.80
76537;DHT22;65381;51.254;15.592;2023-03-23T04:40:20;14.20;52.80
76537;DHT22;65381;51.254;15.592;2023-03-23T04:43:02;14.20;52.80
76537;DHT22;65381;51.254;15.592;2023-03-23T04:45:55;14.20;52.80
76537;DHT22;65381;51.254;15.592;2023-03-23T04:48:29;14.10;52.80
76537;DHT22;65381;51.254;15.592;2023-03-23T04:51:31;14.10;52.80
76537;DHT22;65381;51.254;15.592;2023-03-23T04:54:09;14.10;52.80
76537;DHT22;65381;51.254;15.592;2023-03-23T04:56:39;14.00;52.80
76537;DHT22;65381;51.254;15.592;2023-03-23T04:59:12;14.00;52.80
76537;DHT22;65381;51.254;15.592;2023-03-23T05:01:58;14.00;52.80
76537;DHT22;65381;51.254;15.592;2023-03-23T05:04:27;14.00;52.80
76537;DHT22;65381;51.254;15.592;2023-03-23T05:07:07;14.00;52.90
76537;DHT22;65381;51.254;15.592;2023-03-23T05:09:40;14.00;52.90
76537;DHT22;65381;51.254;15.592;2023-03-23T05:12:09;14.00;52.90
76537;DHT22;65381;51.254;15.592;2023-03-23T05:14:45;14.00;52.90
76537;DHT22;65381;51.254;15.592;2023-03-23T05:17:19;14.00;52.90
76537;DHT22;65381;51.254;15.592;2023-03-23T05:19:52;14.10;52.90
76537;DHT22;65381;51.254;15.592;2023-03-23T05:22:39;14.10;52.90
76537;DHT22;65381;51.254;15.592;2023-03-23T05:25:07;14.00;52.90
76537;DHT22;65381;51.254;15.592;2023-03-23T05:27:45;14.00;52.90
76537;DHT22;65381;51.254;15.592;2023-03-23T05:30:27;14.10;52.90
76537;DHT22;65381;51.254;15.592;2023-03-23T05:32:56;14.20;52.90
76537;DHT22;65381;51.254;15.592;2023-03-23T05:35:43;14.20;52.90
76537;DHT22;65381;51.254;15.592;2023-03-23T05:38:10;14.30;52.80
76537;DHT22;65381;51.254;15.592;2023-03-23T05:40:40;14.40;52.70
76537;DHT22;65381;51.254;15.592;2023-03-23T05:43:15;14.40;52.70
76537;DHT22;65381;51.254;15.592;2023-03-23T05:46:02;14.50;52.70
76537;DHT22;65381;51.254;15.592;2023-03-23T05:48:30;14.50;52.60
76537;DHT22;65381;51.254;15.592;2023-03-23T05:50:58;14.60;52.60
76537;DHT22;65381;51.254;15.592;2023-03-23T05:53:39;14.60;52.60
76537;DHT22;65381;51.254;15.592;2023-03-23T05:56:06;14.60;52.60
76537;DHT22;65381;51.254;15.592;2023-03-23T05:59:07;14.70;52.60
76537;DHT22;65381;51.254;15.592;2023-03-23T06:01:36;14.70;52.50
76537;DHT22;65381;51.254;15.592;2023-03-23T06:04:03;14.70;52.50
76537;DHT22;65381;51.254;15.592;2023-03-23T06:06:39;14.70;52.60
76537;DHT22;65381;51.254;15.592;2023-03-23T06:09:10;14.70;52.70
76537;DHT22;65381;51.254;15.592;2023-03-23T06:12:07;14.90;52.80
76537;DHT22;65381;51.254;15.592;2023-03-23T06:15:10;15.00;52.60
76537;DHT22;65381;51.254;15.592;2023-03-23T06:18:04;15.00;52.50
76537;DHT22;65381;51.254;15.592;2023-03-23T06:20:48;15.00;52.50
76537;DHT22;65381;51.254;15.592;2023-03-23T06:23:24;15.00;52.50
76537;DHT22;65381;51.254;15.592;2023-03-23T06:25:58;15.00;52.50
76537;DHT22;65381;51.254;15.592;2023-03-23T06:28:26;15.00;52.50
76537;DHT22;65381;51.254;15.592;2023-03-23T06:30:54;15.00;52.50
76537;DHT22;65381;51.254;15.592;2023-03-23T06:33:22;15.00;52.50
76537;DHT22;65381;51.254;15.592;2023-03-23T06:36:19;14.90;52.50
76537;DHT22;65381;51.254;15.592;2023-03-23T06:39:07;14.90;52.50
76537;DHT22;65381;51.254;15.592;2023-03-23T06:41:57;15.00;52.50
76537;DHT22;65381;51.254;15.592;2023-03-23T06:44:28;15.00;52.50
76537;DHT22;65381;51.254;15.592;2023-03-23T06:46:56;15.00;52.30
76537;DHT22;65381;51.254;15.592;2023-03-23T06:49:30;15.20;52.50
76537;DHT22;65381;51.254;15.592;2023-03-23T06:52:10;15.30;52.40
76537;DHT22;65381;51.254;15.592;2023-03-23T06:54:37;15.40;52.30
76537;DHT22;65381;51.254;15.592;2023-03-23T06:57:06;15.50;52.10
76537;DHT22;65381;51.254;15.592;2023-03-23T06:59:33;15.60;52.10
76537;DHT22;65381;51.254;15.592;2023-03-23T07:02:01;15.60;52.10
76537;DHT22;65381;51.254;15.592;2023-03-23T07:04:31;15.60;51.90
76537;DHT22;65381;51.254;15.592;2023-03-23T07:07:10;15.60;52.00
76537;DHT22;65381;51.254;15.592;2023-03-23T07:09:49;15.80;52.10
76537;DHT22;65381;51.254;15.592;2023-03-23T07:12:19;15.80;52.00
76537;DHT22;65381;51.254;15.592;2023-03-23T07:14:48;16.00;51.90
76537;DHT22;65381;51.254;15.592;2023-03-23T07:17:14;16.10;52.00
76537;DHT22;65381;51.254;15.592;2023-03-23T07:19:58;16.60;52.20
76537;DHT22;65381;51.254;15.592;2023-03-23T07:22:27;17.20;51.20
76537;DHT22;65381;51.254;15.592;2023-03-23T07:25:03;17.00;50.80
76537;DHT22;65381;51.254;15.592;2023-03-23T07:27:45;16.70;51.10
76537;DHT22;65381;51.254;15.592;2023-03-23T07:30:15;16.60;51.30
76537;DHT22;65381;51.254;15.592;2023-03-23T07:32:42;16.50;51.20
76537;DHT22;65381;51.254;15.592;2023-03-23T07:35:09;16.40;51.40
76537;DHT22;65381;51.254;15.592;2023-03-23T07:37:47;16.40;51.50
76537;DHT22;65381;51.254;15.592;2023-03-23T07:40:16;16.50;51.60
76537;DHT22;65381;51.254;15.592;2023-03-23T07:42:53;16.80;51.50
76537;DHT22;65381;51.254;15.592;2023-03-23T07:45:44;16.80;51.20
76537;DHT22;65381;51.254;15.592;2023-03-23T07:48:14;17.00;51.40
76537;DHT22;65381;51.254;15.592;2023-03-23T07:50:40;17.60;51.10
76537;DHT22;65381;51.254;15.592;2023-03-23T07:53:11;17.90;50.50
76537;DHT22;65381;51.254;15.592;2023-03-23T07:55:40;18.00;50.40
76537;DHT22;65381;51.254;15.592;2023-03-23T07:58:25;17.80;50.10
76537;DHT22;65381;51.254;15.592;2023-03-23T08:00:55;17.60;50.40
76537;DHT22;65381;51.254;15.592;2023-03-23T08:03:26;17.40;50.60
76537;DHT22;65381;51.254;15.592;2023-03-23T08:06:08;17.20;50.70
76537;DHT22;65381;51.254;15.592;2023-03-23T08:09:05;17.00;50.80
76537;DHT22;65381;51.254;15.592;2023-03-23T08:12:09;16.80;50.90
76537;DHT22;65381;51.254;15.592;2023-03-23T08:14:55;16.60;51.10
76537;DHT22;65381;51.254;15.592;2023-03-23T08:17:40;16.40;51.20
76537;DHT22;65381;51.254;15.592;2023-03-23T08:20:33;16.40;51.50
76537;DHT22;65381;51.254;15.592;2023-03-23T08:23:04;16.50;51.40
76537;DHT22;65381;51.254;15.592;2023-03-23T08:25:47;16.60;51.40
76537;DHT22;65381;51.254;15.592;2023-03-23T08:28:28;16.80;51.00
76537;DHT22;65381;51.254;15.592;2023-03-23T08:31:25;16.80;51.00
76537;DHT22;65381;51.254;15.592;2023-03-23T08:34:25;16.70;50.90
76537;DHT22;65381;51.254;15.592;2023-03-23T08:37:13;16.70;50.90
76537;DHT22;65381;51.254;15.592;2023-03-23T08:39:53;16.70;51.00
76537;DHT22;65381;51.254;15.592;2023-03-23T08:42:43;16.70;51.00
76537;DHT22;65381;51.254;15.592;2023-03-23T08:45:30;16.90;50.90
76537;DHT22;65381;51.254;15.592;2023-03-23T08:48:27;17.00;50.60
76537;DHT22;65381;51.254;15.592;2023-03-23T08:51:20;16.90;50.90
76537;DHT22;65381;51.254;15.592;2023-03-23T08:54:12;17.20;51.20
76537;DHT22;65381;51.254;15.592;2023-03-23T08:57:00;17.80;50.80
76537;DHT22;65381;51.254;15.592;2023-03-23T08:59:35;18.10;50.30
76537;DHT22;65381;51.254;15.592;2023-03-23T09:02:22;18.20;50.10
76537;DHT22;65381;51.254;15.592;2023-03-23T09:04:56;18.40;50.10
76537;DHT22;65381;51.254;15.592;2023-03-23T09:07:44;18.90;49.70
76537;DHT22;65381;51.254;15.592;2023-03-23T09:10:12;19.90;49.20
76537;DHT22;65381;51.254;15.592;2023-03-23T09:12:40;20.80;47.80
76537;DHT22;65381;51.254;15.592;2023-03-23T09:15:09;20.80;47.10
76537;DHT22;65381;51.254;15.592;2023-03-23T09:17:40;20.60;47.10
76537;DHT22;65381;51.254;15.592;2023-03-23T09:20:09;20.30;46.80
76537;DHT22;65381;51.254;15.592;2023-03-23T09:22:43;20.00;47.10
76537;DHT22;65381;51.254;15.592;2023-03-23T09:25:12;19.90;47.30
76537;DHT22;65381;51.254;15.592;2023-03-23T09:27:41;20.00;47.30
76537;DHT22;65381;51.254;15.592;2023-03-23T09:30:12;20.20;47.40
76537;DHT22;65381;51.254;15.592;2023-03-23T09:32:40;20.20;47.00
76537;DHT22;65381;51.254;15.592;2023-03-23T09:35:11;20.20;47.40
76537;DHT22;65381;51.254;15.592;2023-03-23T09:37:39;20.10;46.80
76537;DHT22;65381;51.254;15.592;2023-03-23T09:40:11;19.80;46.70
76537;DHT22;65381;51.254;15.592;2023-03-23T09:46:06;18.60;47.40
76537;DHT22;65381;51.254;15.592;2023-03-23T09:48:53;18.20;47.80
76537;DHT22;65381;51.254;15.592;2023-03-23T09:54:23;17.70;48.20
76537;DHT22;65381;51.254;15.592;2023-03-23T09:56:51;17.60;48.50
76537;DHT22;65381;51.254;15.592;2023-03-23T09:59:25;17.60;48.40
76537;DHT22;65381;51.254;15.592;2023-03-23T10:02:12;17.50;48.60
76537;DHT22;65381;51.254;15.592;2023-03-23T10:04:49;17.50;48.80
76537;DHT22;65381;51.254;15.592;2023-03-23T10:07:18;17.70;48.90
76537;DHT22;65381;51.254;15.592;2023-03-23T10:09:49;17.80;48.80
76537;DHT22;65381;51.254;15.592;2023-03-23T10:15:28;17.90;48.80
76537;DHT22;65381;51.254;15.592;2023-03-23T10:18:20;17.80;48.70
76537;DHT22;65381;51.254;15.592;2023-03-23T10:20:54;17.50;48.90
76537;DHT22;65381;51.254;15.592;2023-03-23T10:26:33;17.10;49.30
76537;DHT22;65381;51.254;15.592;2023-03-23T10:29:17;17.00;49.50
76537;DHT22;65381;51.254;15.592;2023-03-23T10:32:00;16.90;49.70
76537;DHT22;65381;51.254;15.592;2023-03-23T10:34:31;16.80;49.70
76537;DHT22;65381;51.254;15.592;2023-03-23T10:39:33;16.40;49.90
76537;DHT22;65381;51.254;15.592;2023-03-23T10:42:03;16.40;50.20
76537;DHT22;65381;51.254;15.592;2023-03-23T10:44:34;16.30;50.30
76537;DHT22;65381;51.254;15.592;2023-03-23T10:47:03;16.20;50.50
76537;DHT22;65381;51.254;15.592;2023-03-23T10:52:56;16.40;50.80
76537;DHT22;65381;51.254;15.592;2023-03-23T10:55:09;16.70;50.80
76537;DHT22;65381;51.254;15.592;2023-03-23T10:57:40;17.00;50.70
76537;DHT22;65381;51.254;15.592;2023-03-23T11:00:18;17.30;50.60
76537;DHT22;65381;51.254;15.592;2023-03-23T11:02:57;17.80;50.60
76537;DHT22;65381;51.254;15.592;2023-03-23T11:05:49;18.50;50.20
76537;DHT22;65381;51.254;15.592;2023-03-23T11:08:20;19.20;49.70
76537;DHT22;65381;51.254;15.592;2023-03-23T11:11:07;19.70;49.50
76537;DHT22;65381;51.254;15.592;2023-03-23T11:13:40;20.30;49.20
76537;DHT22;65381;51.254;15.592;2023-03-23T11:16:09;21.40;48.70
76537;DHT22;65381;51.254;15.592;2023-03-23T11:18:39;22.00;48.20
76537;DHT22;65381;51.254;15.592;2023-03-23T11:21:07;22.30;47.80
76537;DHT22;65381;51.254;15.592;2023-03-23T11:23:38;22.10;47.60
76537;DHT22;65381;51.254;15.592;2023-03-23T11:29:09;20.70;48.00
76537;DHT22;65381;51.254;15.592;2023-03-23T11:31:42;20.10;48.50
76537;DHT22;65381;51.254;15.592;2023-03-23T11:35:03;19.70;48.70
76537;DHT22;65381;51.254;15.592;2023-03-23T11:37:14;19.20;49.20
76537;DHT22;65381;51.254;15.592;2023-03-23T11:39:57;19.10;49.30
76537;DHT22;65381;51.254;15.592;2023-03-23T11:45:39;18.40;49.60
76537;DHT22;65381;51.254;15.592;2023-03-23T11:56:42;17.50;51.10
76537;DHT22;65381;51.254;15.592;2023-03-23T11:59:17;17.50;51.10
76537;DHT22;65381;51.254;15.592;2023-03-23T12:01:54;17.40;51.20
76537;DHT22;65381;51.254;15.592;2023-03-23T12:13:09;17.60;51.40
76537;DHT22;65381;51.254;15.592;2023-03-23T12:19:00;17.60;51.60
76537;DHT22;65381;51.254;15.592;2023-03-23T12:21:45;17.60;51.60
76537;DHT22;65381;51.254;15.592;2023-03-23T12:27:53;17.60;51.60
76537;DHT22;65381;51.254;15.592;2023-03-23T12:30:51;17.80;51.60
76537;DHT22;65381;51.254;15.592;2023-03-23T12:33:40;18.00;51.40
76537;DHT22;65381;51.254;15.592;2023-03-23T12:41:55;18.40;51.00
76537;DHT22;65381;51.254;15.592;2023-03-23T12:45:04;18.40;51.10
76537;DHT22;65381;51.254;15.592;2023-03-23T12:47:41;18.30;51.20
76537;DHT22;65381;51.254;15.592;2023-03-23T12:50:35;18.20;51.20
76537;DHT22;65381;51.254;15.592;2023-03-23T12:53:06;17.90;51.60
76537;DHT22;65381;51.254;15.592;2023-03-23T12:55:45;17.80;51.70
76537;DHT22;65381;51.254;15.592;2023-03-23T12:58:25;17.60;51.90
76537;DHT22;65381;51.254;15.592;2023-03-23T13:00:57;17.40;52.20
76537;DHT22;65381;51.254;15.592;2023-03-23T13:11:43;17.00;53.10
76537;DHT22;65381;51.254;15.592;2023-03-23T13:14:18;16.90;53.40
76537;DHT22;65381;51.254;15.592;2023-03-23T13:22:18;16.40;54.10
76537;DHT22;65381;51.254;15.592;2023-03-23T13:24:54;16.40;54.20
76537;DHT22;65381;51.254;15.592;2023-03-23T13:27:24;16.40;54.30
76537;DHT22;65381;51.254;15.592;2023-03-23T13:29:55;16.20;54.50
76537;DHT22;65381;51.254;15.592;2023-03-23T13:32:33;16.10;54.90
76537;DHT22;65381;51.254;15.592;2023-03-23T13:35:03;16.00;55.00
76537;DHT22;65381;51.254;15.592;2023-03-23T13:37:33;16.00;55.20
76537;DHT22;65381;51.254;15.592;2023-03-23T13:40:28;16.00;55.50
76537;DHT22;65381;51.254;15.592;2023-03-23T13:42:58;16.00;55.60
76537;DHT22;65381;51.254;15.592;2023-03-23T13:50:56;16.00;55.50
76537;DHT22;65381;51.254;15.592;2023-03-23T13:53:27;15.90;55.60
76537;DHT22;65381;51.254;15.592;2023-03-23T13:56:06;15.80;55.50
76537;DHT22;65381;51.254;15.592;2023-03-23T13:58:50;15.80;55.50
76537;DHT22;65381;51.254;15.592;2023-03-23T14:01:35;15.80;55.60
76537;DHT22;65381;51.254;15.592;2023-03-23T14:04:16;15.80;55.80
76537;DHT22;65381;51.254;15.592;2023-03-23T14:06:47;15.60;55.90
76537;DHT22;65381;51.254;15.592;2023-03-23T14:09:32;15.60;56.10
76537;DHT22;65381;51.254;15.592;2023-03-23T14:12:05;15.60;56.40
76537;DHT22;65381;51.254;15.592;2023-03-23T14:14:42;15.60;56.50
76537;DHT22;65381;51.254;15.592;2023-03-23T14:17:31;15.50;56.70
76537;DHT22;65381;51.254;15.592;2023-03-23T14:20:01;15.40;57.00
76537;DHT22;65381;51.254;15.592;2023-03-23T14:22:37;15.30;56.90
76537;DHT22;65381;51.254;15.592;2023-03-23T14:25:15;15.30;57.10
76537;DHT22;65381;51.254;15.592;2023-03-23T14:27:43;15.30;57.40
76537;DHT22;65381;51.254;15.592;2023-03-23T14:30:15;15.30;57.40
76537;DHT22;65381;51.254;15.592;2023-03-23T14:32:42;15.30;57.60
76537;DHT22;65381;51.254;15.592;2023-03-23T14:35:40;15.40;57.50
76537;DHT22;65381;51.254;15.592;2023-03-23T14:38:05;15.50;57.70
76537;DHT22;65381;51.254;15.592;2023-03-23T14:40:38;15.60;57.60
76537;DHT22;65381;51.254;15.592;2023-03-23T14:43:04;15.60;57.60
76537;DHT22;65381;51.254;15.592;2023-03-23T14:45:32;15.80;57.60
76537;DHT22;65381;51.254;15.592;2023-03-23T14:48:01;16.00;57.60
76537;DHT22;65381;51.254;15.592;2023-03-23T14:50:37;16.20;57.70
76537;DHT22;65381;51.254;15.592;2023-03-23T14:53:36;16.30;57.70
76537;DHT22;65381;51.254;15.592;2023-03-23T14:56:18;16.40;57.70
76537;DHT22;65381;51.254;15.592;2023-03-23T14:58:48;16.40;57.90
76537;DHT22;65381;51.254;15.592;2023-03-23T15:01:22;16.40;58.00
76537;DHT22;65381;51.254;15.592;2023-03-23T15:04:01;16.30;58.20
76537;DHT22;65381;51.254;15.592;2023-03-23T15:06:31;16.20;58.20
76537;DHT22;65381;51.254;15.592;2023-03-23T15:09:02;16.10;58.40
76537;DHT22;65381;51.254;15.592;2023-03-23T15:11:33;16.10;58.50
76537;DHT22;65381;51.254;15.592;2023-03-23T15:14:20;16.10;58.50
76537;DHT22;65381;51.254;15.592;2023-03-23T15:16:51;16.20;58.30
76537;DHT22;65381;51.254;15.592;2023-03-23T15:19:30;16.20;58.30
76537;DHT22;65381;51.254;15.592;2023-03-23T15:25:37;16.10;58.30
76537;DHT22;65381;51.254;15.592;2023-03-23T15:27:43;16.00;58.30
76537;DHT22;65381;51.254;15.592;2023-03-23T15:41:31;16.00;58.40
76537;DHT22;65381;51.254;15.592;2023-03-23T15:44:11;16.20;60.70
76537;DHT22;65381;51.254;15.592;2023-03-23T15:46:49;16.30;60.20
76537;DHT22;65381;51.254;15.592;2023-03-23T15:49:17;16.30;59.60
76537;DHT22;65381;51.254;15.592;2023-03-23T15:51:44;16.20;59.30
76537;DHT22;65381;51.254;15.592;2023-03-23T15:54:15;16.10;59.30
76537;DHT22;65381;51.254;15.592;2023-03-23T15:56:43;16.00;59.30
76537;DHT22;65381;51.254;15.592;2023-03-23T15:59:10;15.80;59.20
76537;DHT22;65381;51.254;15.592;2023-03-23T16:01:40;15.80;59.20
76537;DHT22;65381;51.254;15.592;2023-03-23T16:04:11;15.80;59.10
76537;DHT22;65381;51.254;15.592;2023-03-23T16:06:40;15.70;59.00
76537;DHT22;65381;51.254;15.592;2023-03-23T16:09:14;15.70;58.90
76537;DHT22;65381;51.254;15.592;2023-03-23T16:11:42;15.60;58.80
76537;DHT22;65381;51.254;15.592;2023-03-23T16:14:11;15.60;58.80
76537;DHT22;65381;51.254;15.592;2023-03-23T16:19:12;15.60;58.70
76537;DHT22;65381;51.254;15.592;2023-03-23T16:21:41;15.50;58.70
76537;DHT22;65381;51.254;15.592;2023-03-23T16:24:09;15.50;58.70
76537;DHT22;65381;51.254;15.592;2023-03-23T16:26:38;15.50;58.60
76537;DHT22;65381;51.254;15.592;2023-03-23T16:29:12;15.50;58.60
76537;DHT22;65381;51.254;15.592;2023-03-23T16:31:54;15.40;58.70
76537;DHT22;65381;51.254;15.592;2023-03-23T16:34:23;15.40;58.70
76537;DHT22;65381;51.254;15.592;2023-03-23T16:36:51;15.30;58.80
76537;DHT22;65381;51.254;15.592;2023-03-23T16:39:21;15.30;58.80
76537;DHT22;65381;51.254;15.592;2023-03-23T16:41:49;15.30;58.80
76537;DHT22;65381;51.254;15.592;2023-03-23T16:44:19;15.20;58.80
76537;DHT22;65381;51.254;15.592;2023-03-23T16:46:47;15.20;58.90
76537;DHT22;65381;51.254;15.592;2023-03-23T16:49:16;15.20;58.90
76537;DHT22;65381;51.254;15.592;2023-03-23T16:51:45;15.20;59.00
76537;DHT22;65381;51.254;15.592;2023-03-23T16:54:16;15.10;59.10
76537;DHT22;65381;51.254;15.592;2023-03-23T16:56:44;15.00;59.10
76537;DHT22;65381;51.254;15.592;2023-03-23T16:59:13;15.00;59.10
76537;DHT22;65381;51.254;15.592;2023-03-23T17:01:42;15.00;59.10
76537;DHT22;65381;51.254;15.592;2023-03-23T17:04:10;15.00;59.20
76537;DHT22;65381;51.254;15.592;2023-03-23T17:06:38;15.00;59.20
76537;DHT22;65381;51.254;15.592;2023-03-23T17:09:10;15.00;59.20
76537;DHT22;65381;51.254;15.592;2023-03-23T17:11:37;15.00;59.20
76537;DHT22;65381;51.254;15.592;2023-03-23T17:14:06;15.00;59.10
76537;DHT22;65381;51.254;15.592;2023-03-23T17:16:36;15.00;59.10
76537;DHT22;65381;51.254;15.592;2023-03-23T17:19:05;15.00;59.10
76537;DHT22;65381;51.254;15.592;2023-03-23T17:21:34;14.90;59.10
76537;DHT22;65381;51.254;15.592;2023-03-23T17:24:03;14.90;59.10
76537;DHT22;65381;51.254;15.592;2023-03-23T17:26:32;14.90;59.10
76537;DHT22;65381;51.254;15.592;2023-03-23T17:29:02;14.90;59.10
76537;DHT22;65381;51.254;15.592;2023-03-23T17:31:30;14.80;59.20
76537;DHT22;65381;51.254;15.592;2023-03-23T17:33:59;14.80;59.20
76537;DHT22;65381;51.254;15.592;2023-03-23T17:36:27;14.80;59.20
76537;DHT22;65381;51.254;15.592;2023-03-23T17:38:56;14.70;59.30
76537;DHT22;65381;51.254;15.592;2023-03-23T17:41:24;14.60;59.30
76537;DHT22;65381;51.254;15.592;2023-03-23T17:43:53;14.60;59.40
76537;DHT22;65381;51.254;15.592;2023-03-23T17:46:21;14.60;59.50
76537;DHT22;65381;51.254;15.592;2023-03-23T17:48:51;14.60;59.50
76537;DHT22;65381;51.254;15.592;2023-03-23T17:51:23;14.60;59.50
76537;DHT22;65381;51.254;15.592;2023-03-23T17:53:57;14.50;59.50
76537;DHT22;65381;51.254;15.592;2023-03-23T17:56:25;14.60;59.50
76537;DHT22;65381;51.254;15.592;2023-03-23T17:58:54;14.60;59.40